Pagina principale
METAR-TAF:

METAR-TAF

Aeroporti :

Aeroporto di Grosseto

Grosseto, Italia

latitudine: 42-45N, longitudine: 011-04E, altezza: 5 m

Osservazione

Il bollettino è stato emesso 27 minuti fa, alle 20:55 UTC
Vento 8 kt da nord/nord-est
Temperature 4°C
Umidità 75%
Pressione 1012 hPa
Visibilità 10 km o più
nessuna nube inferiore a 1500 m e nessun cumulonembo

METAR: LIRS 182055Z 02008KT CAVOK 04/00 Q1012 RMK SKC VIS MIN 9999 WIND THR03 02007KT WIND THR21 02008KT BLU

Ora: 22:22 (21:22 UTC)

Previsione

Il bollettino è stato emesso 1 ora e 22 minuti fa, alle 20:00 UTC
Previsione valida dal 18 alle 21 UTC al 19 alle 06 UTC
Vento 10 kt da nord
Visibilità 10 km o più
nessuna nube inferiore a 1500 m e nessun cumulonembo

TAF: LIRS 182000Z 1821/1906 01010KT CAVOK

Osservazioni e previsioni meteorologiche di più di 4000 aeroporti (messaggi METAR e TAF).

Le stazioni disponibili sono rappresentate dai dischi gialli e rossi sulla carta.

Puntare il mouse per vedere il nome della stazione.

Clicca sopra per visualizzare le osservazioni e previsioni meteorologiche.

Per cambiare la mappa : fare clic sui pulsanti verdi con una croce nera per ingrandire, il pulsante verde con un trattino per diminuire, o sulla freccia verde per le mappe adiacenti.


METAR-TAF: